sensor_id;sensor_type;location;lat;lon;timestamp;P1;durP1;ratioP1;P2;durP2;ratioP2
2187;SDS011;1100;52.014;8.540;2022-10-16T00:01:15;9.03;;;3.57;;
2187;SDS011;1100;52.014;8.540;2022-10-16T00:03:43;9.20;;;3.35;;
2187;SDS011;1100;52.014;8.540;2022-10-16T00:06:10;9.50;;;3.50;;
2187;SDS011;1100;52.014;8.540;2022-10-16T00:08:36;5.97;;;2.70;;
2187;SDS011;1100;52.014;8.540;2022-10-16T00:11:04;7.78;;;3.28;;
2187;SDS011;1100;52.014;8.540;2022-10-16T00:13:37;8.17;;;3.10;;
2187;SDS011;1100;52.014;8.540;2022-10-16T00:16:05;6.53;;;2.80;;
2187;SDS011;1100;52.014;8.540;2022-10-16T00:18:31;7.03;;;3.13;;
2187;SDS011;1100;52.014;8.540;2022-10-16T00:21:01;9.27;;;3.77;;
2187;SDS011;1100;52.014;8.540;2022-10-16T00:23:31;7.65;;;3.25;;
2187;SDS011;1100;52.014;8.540;2022-10-16T00:25:57;6.78;;;3.05;;
2187;SDS011;1100;52.014;8.540;2022-10-16T00:28:24;11.48;;;3.50;;
2187;SDS011;1100;52.014;8.540;2022-10-16T00:30:51;7.40;;;2.92;;
2187;SDS011;1100;52.014;8.540;2022-10-16T00:33:17;8.07;;;3.03;;
2187;SDS011;1100;52.014;8.540;2022-10-16T00:35:42;6.30;;;2.97;;
2187;SDS011;1100;52.014;8.540;2022-10-16T00:38:08;10.10;;;3.20;;
2187;SDS011;1100;52.014;8.540;2022-10-16T00:40:33;9.60;;;3.40;;
2187;SDS011;1100;52.014;8.540;2022-10-16T00:42:58;12.10;;;3.50;;
2187;SDS011;1100;52.014;8.540;2022-10-16T00:45:24;6.57;;;3.20;;
2187;SDS011;1100;52.014;8.540;2022-10-16T00:47:49;7.07;;;3.20;;
2187;SDS011;1100;52.014;8.540;2022-10-16T00:50:24;9.25;;;3.33;;
2187;SDS011;1100;52.014;8.540;2022-10-16T00:52:54;8.30;;;3.23;;
2187;SDS011;1100;52.014;8.540;2022-10-16T00:55:22;6.75;;;2.83;;
2187;SDS011;1100;52.014;8.540;2022-10-16T00:57:48;7.50;;;3.13;;
2187;SDS011;1100;52.014;8.540;2022-10-16T01:00:16;8.23;;;3.08;;
2187;SDS011;1100;52.014;8.540;2022-10-16T01:02:57;8.30;;;3.35;;
2187;SDS011;1100;52.014;8.540;2022-10-16T01:05:26;7.57;;;3.37;;
2187;SDS011;1100;52.014;8.540;2022-10-16T01:08:12;8.95;;;2.92;;
2187;SDS011;1100;52.014;8.540;2022-10-16T01:10:48;8.27;;;3.40;;
2187;SDS011;1100;52.014;8.540;2022-10-16T01:16:49;7.30;;;3.60;;
2187;SDS011;1100;52.014;8.540;2022-10-16T01:19:09;7.97;;;3.30;;
2187;SDS011;1100;52.014;8.540;2022-10-16T01:21:42;10.35;;;3.70;;
2187;SDS011;1100;52.014;8.540;2022-10-16T01:24:23;10.35;;;3.83;;
2187;SDS011;1100;52.014;8.540;2022-10-16T01:27:26;7.85;;;3.58;;
2187;SDS011;1100;52.014;8.540;2022-10-16T01:35:03;9.38;;;3.10;;
2187;SDS011;1100;52.014;8.540;2022-10-16T01:37:40;9.50;;;3.72;;
2187;SDS011;1100;52.014;8.540;2022-10-16T01:40:12;10.02;;;4.05;;
2187;SDS011;1100;52.014;8.540;2022-10-16T01:42:42;7.57;;;2.92;;
2187;SDS011;1100;52.014;8.540;2022-10-16T01:45:13;10.87;;;4.00;;
2187;SDS011;1100;52.014;8.540;2022-10-16T01:47:43;8.27;;;3.17;;
2187;SDS011;1100;52.014;8.540;2022-10-16T01:50:09;6.57;;;3.47;;
2187;SDS011;1100;52.014;8.540;2022-10-16T01:52:36;7.88;;;3.65;;
2187;SDS011;1100;52.014;8.540;2022-10-16T01:55:06;7.70;;;3.43;;
2187;SDS011;1100;52.014;8.540;2022-10-16T01:57:36;8.07;;;3.13;;
2187;SDS011;1100;52.014;8.540;2022-10-16T02:00:07;8.00;;;3.47;;
2187;SDS011;1100;52.014;8.540;2022-10-16T02:02:35;7.40;;;3.53;;
2187;SDS011;1100;52.014;8.540;2022-10-16T02:05:49;8.90;;;3.70;;
2187;SDS011;1100;52.014;8.540;2022-10-16T02:07:55;10.13;;;3.50;;
2187;SDS011;1100;52.014;8.540;2022-10-16T02:10:20;8.50;;;3.15;;
2187;SDS011;1100;52.014;8.540;2022-10-16T02:12:50;8.93;;;3.50;;
2187;SDS011;1100;52.014;8.540;2022-10-16T02:15:21;9.20;;;3.70;;
2187;SDS011;1100;52.014;8.540;2022-10-16T02:17:46;8.13;;;3.43;;
2187;SDS011;1100;52.014;8.540;2022-10-16T02:20:12;7.17;;;3.40;;
2187;SDS011;1100;52.014;8.540;2022-10-16T02:22:42;7.28;;;3.47;;
2187;SDS011;1100;52.014;8.540;2022-10-16T02:25:19;6.40;;;2.60;;
2187;SDS011;1100;52.014;8.540;2022-10-16T02:27:57;8.00;;;3.40;;
2187;SDS011;1100;52.014;8.540;2022-10-16T02:30:37;6.30;;;2.50;;
2187;SDS011;1100;52.014;8.540;2022-10-16T02:33:08;7.85;;;3.00;;
2187;SDS011;1100;52.014;8.540;2022-10-16T02:35:35;6.35;;;2.28;;
2187;SDS011;1100;52.014;8.540;2022-10-16T02:38:02;6.73;;;3.23;;
2187;SDS011;1100;52.014;8.540;2022-10-16T02:40:29;6.55;;;2.72;;
2187;SDS011;1100;52.014;8.540;2022-10-16T02:42:55;7.75;;;2.60;;
2187;SDS011;1100;52.014;8.540;2022-10-16T02:45:21;7.63;;;2.60;;
2187;SDS011;1100;52.014;8.540;2022-10-16T02:47:47;6.78;;;2.63;;
2187;SDS011;1100;52.014;8.540;2022-10-16T02:50:13;7.30;;;2.55;;
2187;SDS011;1100;52.014;8.540;2022-10-16T02:52:39;6.27;;;2.63;;
2187;SDS011;1100;52.014;8.540;2022-10-16T02:55:04;5.95;;;2.60;;
2187;SDS011;1100;52.014;8.540;2022-10-16T02:57:30;7.67;;;2.70;;
2187;SDS011;1100;52.014;8.540;2022-10-16T02:59:56;5.65;;;2.90;;
2187;SDS011;1100;52.014;8.540;2022-10-16T03:02:22;7.40;;;3.00;;
2187;SDS011;1100;52.014;8.540;2022-10-16T03:04:47;6.13;;;2.60;;
2187;SDS011;1100;52.014;8.540;2022-10-16T03:07:12;7.27;;;2.93;;
2187;SDS011;1100;52.014;8.540;2022-10-16T03:09:38;6.33;;;2.87;;
2187;SDS011;1100;52.014;8.540;2022-10-16T03:12:03;6.30;;;2.50;;
2187;SDS011;1100;52.014;8.540;2022-10-16T03:14:29;6.87;;;2.70;;
2187;SDS011;1100;52.014;8.540;2022-10-16T03:16:54;6.10;;;2.57;;
2187;SDS011;1100;52.014;8.540;2022-10-16T03:19:19;8.33;;;2.70;;
2187;SDS011;1100;52.014;8.540;2022-10-16T03:21:45;5.63;;;2.47;;
2187;SDS011;1100;52.014;8.540;2022-10-16T03:24:10;6.45;;;2.42;;
2187;SDS011;1100;52.014;8.540;2022-10-16T03:26:36;7.10;;;2.40;;
2187;SDS011;1100;52.014;8.540;2022-10-16T03:29:02;5.20;;;2.40;;
2187;SDS011;1100;52.014;8.540;2022-10-16T03:31:28;13.13;;;2.55;;
2187;SDS011;1100;52.014;8.540;2022-10-16T03:33:54;7.07;;;2.13;;
2187;SDS011;1100;52.014;8.540;2022-10-16T03:36:20;6.03;;;2.30;;
2187;SDS011;1100;52.014;8.540;2022-10-16T03:38:45;8.17;;;2.70;;
2187;SDS011;1100;52.014;8.540;2022-10-16T03:41:10;10.00;;;2.60;;
2187;SDS011;1100;52.014;8.540;2022-10-16T03:43:36;5.97;;;2.40;;
2187;SDS011;1100;52.014;8.540;2022-10-16T03:46:01;6.13;;;2.13;;
2187;SDS011;1100;52.014;8.540;2022-10-16T03:50:54;5.18;;;2.25;;
2187;SDS011;1100;52.014;8.540;2022-10-16T03:53:19;6.57;;;2.23;;
2187;SDS011;1100;52.014;8.540;2022-10-16T03:55:45;6.78;;;2.05;;
2187;SDS011;1100;52.014;8.540;2022-10-16T03:58:11;6.30;;;2.50;;
2187;SDS011;1100;52.014;8.540;2022-10-16T04:00:40;5.20;;;2.20;;
2187;SDS011;1100;52.014;8.540;2022-10-16T04:03:06;4.90;;;1.92;;
2187;SDS011;1100;52.014;8.540;2022-10-16T04:05:32;6.40;;;2.37;;
2187;SDS011;1100;52.014;8.540;2022-10-16T04:07:57;4.73;;;2.10;;
2187;SDS011;1100;52.014;8.540;2022-10-16T04:10:22;4.70;;;1.90;;
2187;SDS011;1100;52.014;8.540;2022-10-16T04:12:48;4.53;;;2.10;;
2187;SDS011;1100;52.014;8.540;2022-10-16T04:15:13;5.53;;;2.03;;
2187;SDS011;1100;52.014;8.540;2022-10-16T04:17:38;5.13;;;2.07;;
2187;SDS011;1100;52.014;8.540;2022-10-16T04:20:04;4.77;;;1.70;;
2187;SDS011;1100;52.014;8.540;2022-10-16T04:22:30;9.45;;;2.13;;
2187;SDS011;1100;52.014;8.540;2022-10-16T04:24:55;5.30;;;1.87;;
2187;SDS011;1100;52.014;8.540;2022-10-16T04:27:20;5.73;;;2.07;;
2187;SDS011;1100;52.014;8.540;2022-10-16T04:29:45;5.10;;;2.00;;
2187;SDS011;1100;52.014;8.540;2022-10-16T04:32:11;6.40;;;1.90;;
2187;SDS011;1100;52.014;8.540;2022-10-16T04:34:36;7.90;;;1.60;;
2187;SDS011;1100;52.014;8.540;2022-10-16T04:37:04;4.07;;;1.65;;
2187;SDS011;1100;52.014;8.540;2022-10-16T04:39:29;3.93;;;1.60;;
2187;SDS011;1100;52.014;8.540;2022-10-16T04:41:54;4.93;;;1.90;;
2187;SDS011;1100;52.014;8.540;2022-10-16T04:44:19;5.40;;;2.10;;
2187;SDS011;1100;52.014;8.540;2022-10-16T04:46:45;7.83;;;1.70;;
2187;SDS011;1100;52.014;8.540;2022-10-16T04:49:10;4.47;;;1.50;;
2187;SDS011;1100;52.014;8.540;2022-10-16T04:51:35;5.47;;;1.43;;
2187;SDS011;1100;52.014;8.540;2022-10-16T04:54:01;4.43;;;1.77;;
2187;SDS011;1100;52.014;8.540;2022-10-16T04:56:26;4.00;;;1.40;;
2187;SDS011;1100;52.014;8.540;2022-10-16T04:58:52;6.17;;;1.60;;
2187;SDS011;1100;52.014;8.540;2022-10-16T05:01:17;3.53;;;1.33;;
2187;SDS011;1100;52.014;8.540;2022-10-16T05:03:42;3.93;;;1.60;;
2187;SDS011;1100;52.014;8.540;2022-10-16T05:06:07;4.13;;;1.30;;
2187;SDS011;1100;52.014;8.540;2022-10-16T05:08:33;4.23;;;1.67;;
2187;SDS011;1100;52.014;8.540;2022-10-16T05:10:58;5.77;;;1.67;;
2187;SDS011;1100;52.014;8.540;2022-10-16T05:13:23;4.53;;;1.70;;
2187;SDS011;1100;52.014;8.540;2022-10-16T05:15:49;5.60;;;1.60;;
2187;SDS011;1100;52.014;8.540;2022-10-16T05:18:15;3.53;;;1.30;;
2187;SDS011;1100;52.014;8.540;2022-10-16T05:20:41;4.75;;;1.38;;
2187;SDS011;1100;52.014;8.540;2022-10-16T05:23:06;4.00;;;1.40;;
2187;SDS011;1100;52.014;8.540;2022-10-16T05:25:32;3.53;;;1.42;;
2187;SDS011;1100;52.014;8.540;2022-10-16T05:27:57;4.60;;;1.30;;
2187;SDS011;1100;52.014;8.540;2022-10-16T05:30:22;3.90;;;1.17;;
2187;SDS011;1100;52.014;8.540;2022-10-16T05:32:49;4.07;;;1.30;;
2187;SDS011;1100;52.014;8.540;2022-10-16T05:35:15;4.43;;;1.38;;
2187;SDS011;1100;52.014;8.540;2022-10-16T05:37:41;4.30;;;1.30;;
2187;SDS011;1100;52.014;8.540;2022-10-16T05:40:07;4.53;;;1.33;;
2187;SDS011;1100;52.014;8.540;2022-10-16T05:42:33;6.70;;;1.17;;
2187;SDS011;1100;52.014;8.540;2022-10-16T05:44:58;4.07;;;1.20;;
2187;SDS011;1100;52.014;8.540;2022-10-16T05:47:24;3.80;;;1.20;;
2187;SDS011;1100;52.014;8.540;2022-10-16T05:49:49;3.93;;;1.33;;
2187;SDS011;1100;52.014;8.540;2022-10-16T05:52:14;3.57;;;1.17;;
2187;SDS011;1100;52.014;8.540;2022-10-16T05:54:40;4.00;;;1.00;;
2187;SDS011;1100;52.014;8.540;2022-10-16T05:57:05;5.67;;;1.60;;
2187;SDS011;1100;52.014;8.540;2022-10-16T05:59:31;3.70;;;1.27;;
2187;SDS011;1100;52.014;8.540;2022-10-16T06:01:56;5.43;;;1.20;;
2187;SDS011;1100;52.014;8.540;2022-10-16T06:04:22;3.97;;;1.20;;
2187;SDS011;1100;52.014;8.540;2022-10-16T06:06:47;5.20;;;1.10;;
2187;SDS011;1100;52.014;8.540;2022-10-16T06:09:12;5.85;;;1.10;;
2187;SDS011;1100;52.014;8.540;2022-10-16T06:11:38;3.60;;;1.00;;
2187;SDS011;1100;52.014;8.540;2022-10-16T06:14:03;5.10;;;1.20;;
2187;SDS011;1100;52.014;8.540;2022-10-16T06:16:32;4.50;;;1.20;;
2187;SDS011;1100;52.014;8.540;2022-10-16T06:18:59;4.37;;;1.10;;
2187;SDS011;1100;52.014;8.540;2022-10-16T06:21:25;2.83;;;0.90;;
2187;SDS011;1100;52.014;8.540;2022-10-16T06:23:52;5.78;;;1.30;;
2187;SDS011;1100;52.014;8.540;2022-10-16T06:26:19;5.90;;;1.10;;
2187;SDS011;1100;52.014;8.540;2022-10-16T06:28:46;3.42;;;0.98;;
2187;SDS011;1100;52.014;8.540;2022-10-16T06:31:12;3.75;;;1.17;;
2187;SDS011;1100;52.014;8.540;2022-10-16T06:33:38;3.70;;;1.20;;
2187;SDS011;1100;52.014;8.540;2022-10-16T06:36:11;5.97;;;0.98;;
2187;SDS011;1100;52.014;8.540;2022-10-16T06:38:39;3.50;;;1.03;;
2187;SDS011;1100;52.014;8.540;2022-10-16T06:41:05;2.72;;;0.75;;
2187;SDS011;1100;52.014;8.540;2022-10-16T06:43:32;5.07;;;1.50;;
2187;SDS011;1100;52.014;8.540;2022-10-16T06:46:00;3.13;;;0.90;;
2187;SDS011;1100;52.014;8.540;2022-10-16T06:48:27;3.33;;;0.98;;
2187;SDS011;1100;52.014;8.540;2022-10-16T06:50:56;3.80;;;0.90;;
2187;SDS011;1100;52.014;8.540;2022-10-16T06:53:26;3.35;;;0.90;;
2187;SDS011;1100;52.014;8.540;2022-10-16T06:55:53;4.28;;;0.90;;
2187;SDS011;1100;52.014;8.540;2022-10-16T06:58:19;3.90;;;1.00;;
2187;SDS011;1100;52.014;8.540;2022-10-16T07:00:44;3.40;;;0.98;;
2187;SDS011;1100;52.014;8.540;2022-10-16T07:03:10;3.23;;;1.00;;
2187;SDS011;1100;52.014;8.540;2022-10-16T07:05:39;3.03;;;1.00;;
2187;SDS011;1100;52.014;8.540;2022-10-16T07:08:06;2.87;;;0.73;;
2187;SDS011;1100;52.014;8.540;2022-10-16T07:10:32;3.60;;;1.10;;
2187;SDS011;1100;52.014;8.540;2022-10-16T07:12:57;5.75;;;1.02;;
2187;SDS011;1100;52.014;8.540;2022-10-16T07:15:24;3.30;;;0.90;;
2187;SDS011;1100;52.014;8.540;2022-10-16T07:17:50;5.20;;;1.13;;
2187;SDS011;1100;52.014;8.540;2022-10-16T07:20:15;2.70;;;0.90;;
2187;SDS011;1100;52.014;8.540;2022-10-16T07:22:40;4.27;;;1.00;;
2187;SDS011;1100;52.014;8.540;2022-10-16T07:25:06;3.93;;;1.30;;
2187;SDS011;1100;52.014;8.540;2022-10-16T07:27:32;4.38;;;1.05;;
2187;SDS011;1100;52.014;8.540;2022-10-16T07:29:57;3.00;;;0.83;;
2187;SDS011;1100;52.014;8.540;2022-10-16T07:32:22;4.03;;;1.00;;
2187;SDS011;1100;52.014;8.540;2022-10-16T07:34:48;9.18;;;3.90;;
2187;SDS011;1100;52.014;8.540;2022-10-16T07:37:14;3.13;;;1.20;;
2187;SDS011;1100;52.014;8.540;2022-10-16T07:39:39;5.73;;;1.13;;
2187;SDS011;1100;52.014;8.540;2022-10-16T07:42:04;2.93;;;0.90;;
2187;SDS011;1100;52.014;8.540;2022-10-16T07:44:30;3.90;;;0.97;;
2187;SDS011;1100;52.014;8.540;2022-10-16T07:46:55;4.60;;;1.30;;
2187;SDS011;1100;52.014;8.540;2022-10-16T07:49:20;3.77;;;1.10;;
2187;SDS011;1100;52.014;8.540;2022-10-16T07:51:46;4.10;;;0.80;;
2187;SDS011;1100;52.014;8.540;2022-10-16T07:54:11;4.83;;;1.07;;
2187;SDS011;1100;52.014;8.540;2022-10-16T07:56:36;2.83;;;1.03;;
2187;SDS011;1100;52.014;8.540;2022-10-16T07:59:02;4.47;;;1.20;;
2187;SDS011;1100;52.014;8.540;2022-10-16T08:01:27;2.93;;;0.90;;
2187;SDS011;1100;52.014;8.540;2022-10-16T08:03:52;4.87;;;1.10;;
2187;SDS011;1100;52.014;8.540;2022-10-16T08:06:18;3.67;;;1.23;;
2187;SDS011;1100;52.014;8.540;2022-10-16T08:08:45;6.37;;;1.10;;
2187;SDS011;1100;52.014;8.540;2022-10-16T08:11:11;3.42;;;0.88;;
2187;SDS011;1100;52.014;8.540;2022-10-16T08:13:36;3.07;;;1.00;;
2187;SDS011;1100;52.014;8.540;2022-10-16T08:16:02;4.70;;;1.00;;
2187;SDS011;1100;52.014;8.540;2022-10-16T08:18:32;6.70;;;1.17;;
2187;SDS011;1100;52.014;8.540;2022-10-16T08:20:58;4.85;;;1.13;;
2187;SDS011;1100;52.014;8.540;2022-10-16T08:23:25;2.80;;;1.00;;
2187;SDS011;1100;52.014;8.540;2022-10-16T08:25:51;3.03;;;0.98;;
2187;SDS011;1100;52.014;8.540;2022-10-16T08:28:18;4.28;;;1.08;;
2187;SDS011;1100;52.014;8.540;2022-10-16T08:30:43;3.40;;;1.10;;
2187;SDS011;1100;52.014;8.540;2022-10-16T08:33:09;3.03;;;0.93;;
2187;SDS011;1100;52.014;8.540;2022-10-16T08:35:34;3.43;;;1.00;;
2187;SDS011;1100;52.014;8.540;2022-10-16T08:37:59;3.67;;;1.07;;
2187;SDS011;1100;52.014;8.540;2022-10-16T08:40:26;4.13;;;1.20;;
2187;SDS011;1100;52.014;8.540;2022-10-16T08:51:07;3.97;;;0.90;;
2187;SDS011;1100;52.014;8.540;2022-10-16T08:53:40;3.00;;;0.70;;
2187;SDS011;1100;52.014;8.540;2022-10-16T08:56:09;4.88;;;0.82;;
2187;SDS011;1100;52.014;8.540;2022-10-16T08:58:35;6.60;;;1.07;;
2187;SDS011;1100;52.014;8.540;2022-10-16T09:01:01;5.50;;;1.00;;
2187;SDS011;1100;52.014;8.540;2022-10-16T09:17:41;3.00;;;0.90;;
2187;SDS011;1100;52.014;8.540;2022-10-16T09:22:41;3.57;;;0.70;;
2187;SDS011;1100;52.014;8.540;2022-10-16T09:25:11;4.63;;;0.80;;
2187;SDS011;1100;52.014;8.540;2022-10-16T09:27:39;5.57;;;0.83;;
2187;SDS011;1100;52.014;8.540;2022-10-16T09:30:12;2.88;;;0.70;;
2187;SDS011;1100;52.014;8.540;2022-10-16T09:32:39;3.33;;;0.70;;
2187;SDS011;1100;52.014;8.540;2022-10-16T09:35:09;2.50;;;0.50;;
2187;SDS011;1100;52.014;8.540;2022-10-16T09:37:39;2.72;;;0.65;;
2187;SDS011;1100;52.014;8.540;2022-10-16T09:40:07;3.63;;;0.83;;
2187;SDS011;1100;52.014;8.540;2022-10-16T09:42:37;3.72;;;0.88;;
2187;SDS011;1100;52.014;8.540;2022-10-16T09:45:02;3.00;;;0.67;;
2187;SDS011;1100;52.014;8.540;2022-10-16T09:47:29;3.15;;;0.50;;
2187;SDS011;1100;52.014;8.540;2022-10-16T09:49:57;2.85;;;0.60;;
2187;SDS011;1100;52.014;8.540;2022-10-16T09:52:30;3.72;;;0.50;;
2187;SDS011;1100;52.014;8.540;2022-10-16T09:54:58;3.95;;;0.57;;
2187;SDS011;1100;52.014;8.540;2022-10-16T09:57:25;4.07;;;1.23;;
2187;SDS011;1100;52.014;8.540;2022-10-16T09:59:52;4.22;;;0.80;;
2187;SDS011;1100;52.014;8.540;2022-10-16T10:02:19;4.03;;;0.50;;
2187;SDS011;1100;52.014;8.540;2022-10-16T10:04:54;3.63;;;0.70;;
2187;SDS011;1100;52.014;8.540;2022-10-16T10:07:21;3.07;;;0.50;;
2187;SDS011;1100;52.014;8.540;2022-10-16T10:09:50;5.00;;;0.90;;
2187;SDS011;1100;52.014;8.540;2022-10-16T10:12:17;4.40;;;0.80;;
2187;SDS011;1100;52.014;8.540;2022-10-16T10:14:49;4.63;;;0.83;;
2187;SDS011;1100;52.014;8.540;2022-10-16T10:17:18;3.22;;;0.63;;
2187;SDS011;1100;52.014;8.540;2022-10-16T10:22:27;3.38;;;0.60;;
2187;SDS011;1100;52.014;8.540;2022-10-16T10:44:37;3.47;;;0.50;;
2187;SDS011;1100;52.014;8.540;2022-10-16T10:52:46;3.25;;;0.40;;
2187;SDS011;1100;52.014;8.540;2022-10-16T11:00:54;3.17;;;0.77;;
2187;SDS011;1100;52.014;8.540;2022-10-16T11:03:30;3.03;;;0.60;;
2187;SDS011;1100;52.014;8.540;2022-10-16T11:08:48;3.77;;;1.10;;
2187;SDS011;1100;52.014;8.540;2022-10-16T11:11:31;4.07;;;0.80;;
2187;SDS011;1100;52.014;8.540;2022-10-16T11:14:09;6.35;;;0.63;;
2187;SDS011;1100;52.014;8.540;2022-10-16T11:19:49;2.45;;;0.60;;
2187;SDS011;1100;52.014;8.540;2022-10-16T11:24:59;4.78;;;0.60;;
2187;SDS011;1100;52.014;8.540;2022-10-16T11:27:39;4.55;;;0.43;;
2187;SDS011;1100;52.014;8.540;2022-10-16T11:30:14;4.38;;;0.70;;
2187;SDS011;1100;52.014;8.540;2022-10-16T11:35:19;2.50;;;0.60;;
2187;SDS011;1100;52.014;8.540;2022-10-16T11:37:49;3.40;;;0.60;;
2187;SDS011;1100;52.014;8.540;2022-10-16T11:42:58;3.22;;;0.50;;
2187;SDS011;1100;52.014;8.540;2022-10-16T11:45:34;3.22;;;0.50;;
2187;SDS011;1100;52.014;8.540;2022-10-16T11:51:18;2.92;;;0.45;;
2187;SDS011;1100;52.014;8.540;2022-10-16T11:53:58;4.13;;;0.70;;
2187;SDS011;1100;52.014;8.540;2022-10-16T11:56:29;4.47;;;0.55;;
2187;SDS011;1100;52.014;8.540;2022-10-16T11:59:01;3.72;;;0.73;;
2187;SDS011;1100;52.014;8.540;2022-10-16T12:09:30;2.97;;;0.63;;
2187;SDS011;1100;52.014;8.540;2022-10-16T12:11:57;3.22;;;0.82;;
2187;SDS011;1100;52.014;8.540;2022-10-16T12:17:00;2.67;;;0.60;;
2187;SDS011;1100;52.014;8.540;2022-10-16T12:19:56;5.43;;;0.80;;
2187;SDS011;1100;52.014;8.540;2022-10-16T12:22:23;5.75;;;0.80;;
2187;SDS011;1100;52.014;8.540;2022-10-16T12:24:51;3.80;;;0.50;;
2187;SDS011;1100;52.014;8.540;2022-10-16T12:27:30;2.47;;;0.70;;
2187;SDS011;1100;52.014;8.540;2022-10-16T12:29:57;3.60;;;0.80;;
2187;SDS011;1100;52.014;8.540;2022-10-16T12:35:01;4.50;;;0.70;;
2187;SDS011;1100;52.014;8.540;2022-10-16T12:37:33;6.22;;;1.00;;
2187;SDS011;1100;52.014;8.540;2022-10-16T12:40:10;2.78;;;1.00;;
2187;SDS011;1100;52.014;8.540;2022-10-16T12:42:57;3.20;;;0.82;;
2187;SDS011;1100;52.014;8.540;2022-10-16T12:45:24;4.32;;;0.80;;
2187;SDS011;1100;52.014;8.540;2022-10-16T12:47:56;4.10;;;0.90;;
2187;SDS011;1100;52.014;8.540;2022-10-16T12:50:29;3.72;;;0.75;;
2187;SDS011;1100;52.014;8.540;2022-10-16T12:52:58;3.58;;;0.80;;
2187;SDS011;1100;52.014;8.540;2022-10-16T12:55:24;2.58;;;0.80;;
2187;SDS011;1100;52.014;8.540;2022-10-16T13:09:12;5.53;;;1.23;;
2187;SDS011;1100;52.014;8.540;2022-10-16T13:17:20;4.65;;;1.00;;
2187;SDS011;1100;52.014;8.540;2022-10-16T13:28:05;4.75;;;1.17;;
2187;SDS011;1100;52.014;8.540;2022-10-16T13:30:38;4.70;;;1.10;;
2187;SDS011;1100;52.014;8.540;2022-10-16T13:35:35;4.65;;;1.25;;
2187;SDS011;1100;52.014;8.540;2022-10-16T13:43:14;7.03;;;1.10;;
2187;SDS011;1100;52.014;8.540;2022-10-16T13:45:41;4.93;;;1.30;;
2187;SDS011;1100;52.014;8.540;2022-10-16T13:48:18;5.07;;;1.17;;
2187;SDS011;1100;52.014;8.540;2022-10-16T13:50:43;4.43;;;1.33;;
2187;SDS011;1100;52.014;8.540;2022-10-16T13:53:14;4.27;;;1.10;;
2187;SDS011;1100;52.014;8.540;2022-10-16T13:55:40;4.85;;;1.40;;
2187;SDS011;1100;52.014;8.540;2022-10-16T13:58:11;4.93;;;1.10;;
2187;SDS011;1100;52.014;8.540;2022-10-16T14:00:38;3.80;;;1.20;;
2187;SDS011;1100;52.014;8.540;2022-10-16T14:03:07;5.10;;;1.00;;
2187;SDS011;1100;52.014;8.540;2022-10-16T14:05:45;4.30;;;1.10;;
2187;SDS011;1100;52.014;8.540;2022-10-16T14:08:14;5.45;;;1.30;;
2187;SDS011;1100;52.014;8.540;2022-10-16T14:10:39;4.07;;;1.10;;
2187;SDS011;1100;52.014;8.540;2022-10-16T14:13:05;4.43;;;1.40;;
2187;SDS011;1100;52.014;8.540;2022-10-16T14:15:33;5.18;;;1.17;;
2187;SDS011;1100;52.014;8.540;2022-10-16T14:18:00;5.53;;;1.15;;
2187;SDS011;1100;52.014;8.540;2022-10-16T14:20:31;4.50;;;1.30;;
2187;SDS011;1100;52.014;8.540;2022-10-16T14:23:02;4.13;;;1.38;;
2187;SDS011;1100;52.014;8.540;2022-10-16T14:25:30;4.40;;;1.30;;
2187;SDS011;1100;52.014;8.540;2022-10-16T14:27:57;6.07;;;1.30;;
2187;SDS011;1100;52.014;8.540;2022-10-16T14:30:48;4.10;;;1.02;;
2187;SDS011;1100;52.014;8.540;2022-10-16T14:33:49;3.95;;;1.13;;
2187;SDS011;1100;52.014;8.540;2022-10-16T14:38:35;3.10;;;0.80;;
2187;SDS011;1100;52.014;8.540;2022-10-16T14:41:02;3.08;;;0.95;;
2187;SDS011;1100;52.014;8.540;2022-10-16T14:46:02;4.03;;;1.20;;
2187;SDS011;1100;52.014;8.540;2022-10-16T14:48:31;4.07;;;1.05;;
2187;SDS011;1100;52.014;8.540;2022-10-16T14:50:57;3.28;;;1.20;;
2187;SDS011;1100;52.014;8.540;2022-10-16T14:53:22;3.50;;;1.00;;
2187;SDS011;1100;52.014;8.540;2022-10-16T14:55:48;4.87;;;1.90;;
2187;SDS011;1100;52.014;8.540;2022-10-16T15:00:43;4.38;;;0.93;;
2187;SDS011;1100;52.014;8.540;2022-10-16T15:03:09;4.27;;;1.07;;
2187;SDS011;1100;52.014;8.540;2022-10-16T15:05:35;3.67;;;1.00;;
2187;SDS011;1100;52.014;8.540;2022-10-16T15:08:00;4.13;;;0.90;;
2187;SDS011;1100;52.014;8.540;2022-10-16T15:10:26;3.73;;;1.10;;
2187;SDS011;1100;52.014;8.540;2022-10-16T15:12:53;4.32;;;1.27;;
2187;SDS011;1100;52.014;8.540;2022-10-16T15:17:47;3.55;;;1.10;;
2187;SDS011;1100;52.014;8.540;2022-10-16T15:20:13;4.47;;;1.10;;
2187;SDS011;1100;52.014;8.540;2022-10-16T15:22:39;5.90;;;1.30;;
2187;SDS011;1100;52.014;8.540;2022-10-16T15:28:04;6.05;;;1.73;;
2187;SDS011;1100;52.014;8.540;2022-10-16T15:30:30;5.50;;;1.33;;
2187;SDS011;1100;52.014;8.540;2022-10-16T15:32:55;7.23;;;1.47;;
2187;SDS011;1100;52.014;8.540;2022-10-16T15:35:21;5.30;;;1.80;;
2187;SDS011;1100;52.014;8.540;2022-10-16T15:37:47;5.57;;;1.80;;
2187;SDS011;1100;52.014;8.540;2022-10-16T15:40:13;5.35;;;1.75;;
2187;SDS011;1100;52.014;8.540;2022-10-16T15:42:40;6.50;;;2.03;;
2187;SDS011;1100;52.014;8.540;2022-10-16T15:45:05;6.07;;;2.13;;
2187;SDS011;1100;52.014;8.540;2022-10-16T15:47:33;8.20;;;2.60;;
2187;SDS011;1100;52.014;8.540;2022-10-16T15:49:58;5.30;;;2.00;;
2187;SDS011;1100;52.014;8.540;2022-10-16T15:52:24;5.45;;;2.45;;
2187;SDS011;1100;52.014;8.540;2022-10-16T15:54:49;7.27;;;2.60;;
2187;SDS011;1100;52.014;8.540;2022-10-16T15:57:15;7.63;;;3.17;;
2187;SDS011;1100;52.014;8.540;2022-10-16T15:59:40;6.60;;;2.43;;
2187;SDS011;1100;52.014;8.540;2022-10-16T16:02:05;5.20;;;2.33;;
2187;SDS011;1100;52.014;8.540;2022-10-16T16:04:31;5.73;;;2.73;;
2187;SDS011;1100;52.014;8.540;2022-10-16T16:06:56;8.53;;;4.20;;
2187;SDS011;1100;52.014;8.540;2022-10-16T16:09:22;7.50;;;3.60;;
2187;SDS011;1100;52.014;8.540;2022-10-16T16:11:47;8.97;;;3.73;;
2187;SDS011;1100;52.014;8.540;2022-10-16T16:14:14;6.80;;;3.50;;
2187;SDS011;1100;52.014;8.540;2022-10-16T16:16:39;7.25;;;2.95;;
2187;SDS011;1100;52.014;8.540;2022-10-16T16:19:06;7.10;;;2.92;;
2187;SDS011;1100;52.014;8.540;2022-10-16T16:21:33;5.37;;;3.10;;
2187;SDS011;1100;52.014;8.540;2022-10-16T16:23:59;6.55;;;2.92;;
2187;SDS011;1100;52.014;8.540;2022-10-16T16:26:28;6.30;;;2.93;;
2187;SDS011;1100;52.014;8.540;2022-10-16T16:28:59;5.68;;;3.35;;
2187;SDS011;1100;52.014;8.540;2022-10-16T16:31:28;5.40;;;2.95;;
2187;SDS011;1100;52.014;8.540;2022-10-16T16:33:55;6.63;;;3.05;;
2187;SDS011;1100;52.014;8.540;2022-10-16T16:36:21;6.78;;;3.28;;
2187;SDS011;1100;52.014;8.540;2022-10-16T16:38:47;5.23;;;3.00;;
2187;SDS011;1100;52.014;8.540;2022-10-16T16:41:20;7.30;;;3.33;;
2187;SDS011;1100;52.014;8.540;2022-10-16T16:43:48;5.43;;;3.03;;
2187;SDS011;1100;52.014;8.540;2022-10-16T16:46:14;5.77;;;2.90;;
2187;SDS011;1100;52.014;8.540;2022-10-16T16:48:40;5.50;;;2.88;;
2187;SDS011;1100;52.014;8.540;2022-10-16T16:51:06;5.77;;;2.50;;
2187;SDS011;1100;52.014;8.540;2022-10-16T16:53:34;5.63;;;2.58;;
2187;SDS011;1100;52.014;8.540;2022-10-16T16:56:01;5.95;;;3.00;;
2187;SDS011;1100;52.014;8.540;2022-10-16T16:58:31;5.68;;;2.78;;
2187;SDS011;1100;52.014;8.540;2022-10-16T17:00:57;6.25;;;2.67;;
2187;SDS011;1100;52.014;8.540;2022-10-16T17:03:26;5.50;;;2.83;;
2187;SDS011;1100;52.014;8.540;2022-10-16T17:06:05;6.05;;;3.47;;
2187;SDS011;1100;52.014;8.540;2022-10-16T17:08:32;8.05;;;4.43;;
2187;SDS011;1100;52.014;8.540;2022-10-16T17:10:58;8.52;;;4.07;;
2187;SDS011;1100;52.014;8.540;2022-10-16T17:13:25;8.30;;;4.50;;
2187;SDS011;1100;52.014;8.540;2022-10-16T17:15:51;9.75;;;4.18;;
2187;SDS011;1100;52.014;8.540;2022-10-16T17:18:18;8.90;;;4.20;;
2187;SDS011;1100;52.014;8.540;2022-10-16T17:20:45;9.13;;;4.00;;
2187;SDS011;1100;52.014;8.540;2022-10-16T17:23:11;10.05;;;4.32;;
2187;SDS011;1100;52.014;8.540;2022-10-16T17:25:37;7.72;;;4.05;;
2187;SDS011;1100;52.014;8.540;2022-10-16T17:28:04;7.10;;;3.43;;
2187;SDS011;1100;52.014;8.540;2022-10-16T17:30:31;8.00;;;3.30;;
2187;SDS011;1100;52.014;8.540;2022-10-16T17:32:59;8.05;;;3.45;;
2187;SDS011;1100;52.014;8.540;2022-10-16T17:35:25;7.20;;;2.90;;
2187;SDS011;1100;52.014;8.540;2022-10-16T17:37:51;9.67;;;4.40;;
2187;SDS011;1100;52.014;8.540;2022-10-16T17:40:16;8.55;;;3.88;;
2187;SDS011;1100;52.014;8.540;2022-10-16T17:42:42;6.50;;;3.23;;
2187;SDS011;1100;52.014;8.540;2022-10-16T17:45:07;7.67;;;3.67;;